Time;durP1;ratioP1;P1;durP2;ratioP2;P2;SDS_P1;SDS_P2;PMS_P1;PMS_P2;Temp;Humidity;BMP_temperature;BMP_pressure;BME280_temperature;BME280_humidity;BME280_pressure;Samples;Min_cycle;Max_cycle;Signal;HPM_P1;HPM_P2
2023/07/10 00:02:12;;;;;;;1.27;0.80;;;;;;;10.99;75.46;101377.53;10471685;28;20037;-77
2023/07/10 00:07:14;;;;;;;1.40;0.90;;;;;;;11.09;74.61;101384.97;10461884;28;20033;-77
2023/07/10 00:12:18;;;;;;;1.25;0.70;;;;;;;11.18;75.43;101392.47;10484864;28;20049;-76
2023/07/10 00:17:20;;;;;;;1.10;0.90;;;;;;;11.16;75.25;101391.91;10465055;28;20053;-76
2023/07/10 00:22:22;;;;;;;2.97;1.00;;;;;;;11.10;74.93;101398.44;10439262;28;20136;-77
2023/07/10 00:27:25;;;;;;;1.27;0.90;;;;;;;11.12;74.87;101387.22;10482114;28;20045;-77
2023/07/10 00:32:27;;;;;;;2.30;0.90;;;;;;;11.18;74.76;101395.22;10477088;28;20041;-77
2023/07/10 00:37:29;;;;;;;1.10;1.00;;;;;;;11.02;75.33;101393.47;10482926;28;20423;-77
2023/07/10 00:42:31;;;;;;;1.63;1.13;;;;;;;10.99;75.62;101391.25;10470659;28;20033;-76
2023/07/10 00:47:40;;;;;;;2.30;1.05;;;;;;;10.78;76.17;101394.97;10445795;28;20491;-76
2023/07/10 00:52:45;;;;;;;2.55;1.17;;;;;;;10.86;76.78;101391.72;10447208;28;20048;-77
2023/07/10 00:57:50;;;;;;;2.53;1.15;;;;;;;11.01;76.89;101389.06;10448647;28;20036;-77
2023/07/10 01:02:52;;;;;;;1.50;1.20;;;;;;;10.93;76.73;101388.72;10441117;28;20041;-77
2023/07/10 01:07:57;;;;;;;1.52;1.10;;;;;;;10.82;77.33;101398.84;10481207;28;20064;-77
2023/07/10 01:13:00;;;;;;;5.95;1.70;;;;;;;10.88;77.14;101398.59;10482063;28;20041;-77
2023/07/10 01:18:02;;;;;;;2.40;1.55;;;;;;;10.85;76.68;101396.38;10484021;28;20052;-77
2023/07/10 01:23:05;;;;;;;2.90;1.70;;;;;;;10.77;77.10;101396.06;10451861;28;20433;-76
2023/07/10 01:28:09;;;;;;;3.10;1.65;;;;;;;10.71;77.88;101403.41;10456086;28;20073;-77
2023/07/10 01:33:22;;;;;;;1.90;1.08;;;;;;;10.71;77.69;101403.41;10461157;28;20048;-76
2023/07/10 01:38:35;;;;;;;2.10;1.52;;;;;;;10.65;77.32;101398.16;10488041;28;20056;-77
2023/07/10 01:43:37;;;;;;;2.70;0.75;;;;;;;10.56;78.14;101406.88;10464625;28;20043;-76
2023/07/10 01:48:39;;;;;;;1.85;0.90;;;;;;;10.58;77.54;101412.91;10455182;28;20041;-76
2023/07/10 01:53:44;;;;;;;1.25;1.08;;;;;;;10.64;77.52;101410.22;10470012;28;20044;-76
2023/07/10 01:58:47;;;;;;;0.80;0.80;;;;;;;10.78;77.47;101405.97;10488556;28;20083;-77
2023/07/10 02:03:49;;;;;;;2.85;1.05;;;;;;;10.79;77.45;101405.69;10486217;28;20040;-76
2023/07/10 02:08:51;;;;;;;1.35;1.00;;;;;;;10.93;76.49;101407.94;10467983;28;20048;-76
2023/07/10 02:13:54;;;;;;;1.08;0.77;;;;;;;11.49;75.90;101400.84;10455142;28;20055;-77
2023/07/10 02:18:56;;;;;;;0.93;0.70;;;;;;;12.03;73.34;101406.00;10487375;28;20450;-77
2023/07/10 02:23:59;;;;;;;2.85;1.13;;;;;;;12.31;71.97;101405.47;10470179;28;20041;-77
2023/07/10 02:29:01;;;;;;;1.45;1.10;;;;;;;12.25;71.71;101409.31;10479875;28;20054;-76
2023/07/10 02:34:03;;;;;;;3.33;1.30;;;;;;;12.43;71.25;101410.72;10469903;28;20053;-76
2023/07/10 02:39:05;;;;;;;1.73;1.15;;;;;;;12.64;70.55;101414.28;10456519;28;20045;-77
2023/07/10 02:44:07;;;;;;;1.40;0.88;;;;;;;13.01;69.58;101419.47;10469088;28;20048;-77
2023/07/10 02:49:09;;;;;;;1.63;0.80;;;;;;;13.14;70.00;101418.06;10469119;28;20044;-77
2023/07/10 02:54:13;;;;;;;0.98;0.70;;;;;;;13.51;68.91;101415.78;10460653;28;20049;-77
2023/07/10 02:59:15;;;;;;;1.38;0.90;;;;;;;13.66;68.07;101433.38;10447287;28;20053;-77
2023/07/10 03:04:17;;;;;;;1.42;0.95;;;;;;;14.04;67.14;101418.81;10463879;28;20033;-76
2023/07/10 03:09:19;;;;;;;0.85;0.80;;;;;;;14.18;66.69;101417.09;10486127;28;20522;-76
2023/07/10 03:14:21;;;;;;;1.10;0.93;;;;;;;14.52;65.81;101416.31;10447664;28;20040;-76
2023/07/10 03:19:23;;;;;;;0.60;0.60;;;;;;;14.52;65.94;101418.25;10482787;28;20411;-77
2023/07/10 03:24:26;;;;;;;0.90;0.70;;;;;;;14.83;64.90;101418.81;10482008;28;20048;-77
2023/07/10 03:29:28;;;;;;;2.35;0.82;;;;;;;15.27;63.82;101419.47;10462880;28;20041;-77
2023/07/10 03:34:30;;;;;;;2.50;0.90;;;;;;;15.65;62.30;101422.38;10466613;28;20391;-77
2023/07/10 03:39:33;;;;;;;0.75;0.60;;;;;;;15.92;61.78;101425.31;10484621;28;20040;-77
2023/07/10 03:44:35;;;;;;;1.50;0.70;;;;;;;16.03;61.44;101430.72;10467054;28;20044;-77
2023/07/10 03:49:38;;;;;;;2.78;0.88;;;;;;;16.58;59.92;101429.88;10473733;28;20037;-77
2023/07/10 03:54:40;;;;;;;0.63;0.55;;;;;;;16.42;59.77;101431.22;10480270;28;20044;-77
2023/07/10 03:59:42;;;;;;;0.50;0.50;;;;;;;15.94;61.44;101417.53;10476138;28;20037;-77
2023/07/10 04:04:44;;;;;;;1.02;0.80;;;;;;;16.59;60.38;101417.66;10476342;28;20056;-77
2023/07/10 04:09:46;;;;;;;1.50;0.70;;;;;;;17.37;57.93;101410.44;10483087;28;20420;-77
2023/07/10 04:14:48;;;;;;;1.15;0.70;;;;;;;17.32;57.40;101415.25;10485087;28;20040;-77
2023/07/10 04:19:51;;;;;;;4.28;0.88;;;;;;;17.00;58.24;101421.69;10483485;28;20495;-77
2023/07/10 04:24:54;;;;;;;0.50;0.50;;;;;;;16.76;59.16;101417.13;10483787;28;20037;-77
2023/07/10 04:29:56;;;;;;;2.63;0.70;;;;;;;16.69;59.38;101422.25;10482824;28;20059;-77
2023/07/10 04:34:58;;;;;;;2.25;0.75;;;;;;;16.78;59.14;101433.44;10483321;28;20041;-78
2023/07/10 04:40:00;;;;;;;1.33;0.80;;;;;;;15.89;60.97;101437.00;10466026;28;20045;-77
2023/07/10 04:45:03;;;;;;;0.60;0.60;;;;;;;16.15;61.02;101428.34;10464400;28;20143;-78
2023/07/10 04:50:05;;;;;;;0.50;0.50;;;;;;;16.69;59.27;101422.25;10464716;28;20045;-78
2023/07/10 04:55:07;;;;;;;0.38;0.38;;;;;;;17.06;58.38;101431.56;10487509;28;20665;-77
2023/07/10 05:00:10;;;;;;;0.60;0.50;;;;;;;16.81;58.63;101427.28;10492199;28;20067;-77
2023/07/10 05:05:13;;;;;;;0.60;0.60;;;;;;;17.02;58.36;101436.09;10484620;28;20041;-77
2023/07/10 05:10:15;;;;;;;0.40;0.40;;;;;;;17.03;58.29;101443.28;10472457;28;20060;-77
2023/07/10 05:15:19;;;;;;;3.53;0.57;;;;;;;16.57;58.79;101433.75;10491252;28;20041;-77
2023/07/10 05:20:22;;;;;;;1.45;0.55;;;;;;;16.37;59.10;101456.25;10485756;28;21660;-77
2023/07/10 05:25:24;;;;;;;0.52;0.52;;;;;;;16.55;59.20;101444.31;10472748;28;20053;-77
2023/07/10 05:30:26;;;;;;;1.15;0.40;;;;;;;16.59;58.27;101448.13;10442424;28;20419;-77
2023/07/10 05:35:28;;;;;;;0.30;0.30;;;;;;;17.28;57.46;101444.75;10470417;28;20060;-77
2023/07/10 05:40:31;;;;;;;0.63;0.40;;;;;;;17.89;54.61;101449.09;10472430;28;20064;-77
2023/07/10 05:45:33;;;;;;;1.10;0.45;;;;;;;18.52;53.84;101434.28;10474116;28;20037;-77
2023/07/10 05:50:35;;;;;;;0.40;0.40;;;;;;;19.11;50.87;101446.19;10490461;28;20044;-77
2023/07/10 05:55:51;;;;;;;0.30;0.30;;;;;;;18.25;53.41;101447.16;10470828;28;20570;-77
2023/07/10 06:00:56;;;;;;;0.75;0.30;;;;;;;17.91;53.45;101450.44;10490885;28;20040;-76
2023/07/10 06:06:00;;;;;;;1.88;0.50;;;;;;;17.26;54.58;101445.06;10487254;28;20041;-77
2023/07/10 06:11:04;;;;;;;1.00;0.52;;;;;;;17.30;54.91;101459.13;10489360;28;20053;-77
2023/07/10 06:16:08;;;;;;;1.33;0.47;;;;;;;17.10;54.93;101450.06;10488237;28;20041;-76
2023/07/10 06:21:10;;;;;;;0.88;0.60;;;;;;;17.26;55.37;101455.31;10489316;28;20041;-77
2023/07/10 06:26:13;;;;;;;0.52;0.50;;;;;;;18.57;51.07;101440.56;10487610;28;20049;-77
2023/07/10 06:31:16;;;;;;;0.30;0.30;;;;;;;19.42;48.46;101440.56;10484398;28;20065;-76
2023/07/10 06:36:18;;;;;;;2.10;0.47;;;;;;;19.11;47.27;101435.88;10487266;28;20041;-77
2023/07/10 06:41:20;;;;;;;0.57;0.50;;;;;;;18.35;48.72;101452.47;10476270;28;20053;-77
2023/07/10 06:46:23;;;;;;;1.65;0.45;;;;;;;16.77;51.62;101460.34;10449518;28;20040;-77
2023/07/10 06:51:25;;;;;;;2.05;0.70;;;;;;;16.37;53.58;101447.94;10469798;28;20036;-77
2023/07/10 06:56:27;;;;;;;1.00;0.60;;;;;;;16.44;53.25;101433.69;10457873;28;20048;-77
2023/07/10 07:01:29;;;;;;;3.88;1.23;;;;;;;17.69;50.69;101442.81;10487157;28;20041;-78
2023/07/10 07:06:31;;;;;;;2.40;0.40;;;;;;;18.26;48.87;101440.47;10485146;28;20513;-78
2023/07/10 07:11:33;;;;;;;2.58;1.02;;;;;;;17.13;50.72;101434.75;10485970;28;20061;-78
2023/07/10 07:16:36;;;;;;;0.70;0.70;;;;;;;16.27;53.74;101429.50;10486441;28;20048;-77
2023/07/10 07:21:38;;;;;;;0.90;0.65;;;;;;;17.00;52.75;101430.00;10467732;28;20179;-77
2023/07/10 07:26:40;;;;;;;0.70;0.60;;;;;;;17.74;51.26;101423.31;10474309;28;20413;-75
2023/07/10 07:31:43;;;;;;;0.60;0.60;;;;;;;18.67;48.31;101422.84;10474063;28;20044;-77
2023/07/10 07:36:49;;;;;;;1.35;0.52;;;;;;;19.38;47.34;101422.88;10485196;28;20056;-77
2023/07/10 07:41:51;;;;;;;0.82;0.57;;;;;;;19.53;45.30;101408.53;10463239;28;20056;-77
2023/07/10 07:46:53;;;;;;;0.82;0.40;;;;;;;19.70;44.73;101425.31;10450139;28;20392;-75
2023/07/10 07:51:55;;;;;;;3.03;0.60;;;;;;;20.11;44.29;101427.69;10482220;28;20049;-77
2023/07/10 07:56:57;;;;;;;1.85;0.70;;;;;;;20.09;44.10;101423.59;10485955;28;20064;-77
2023/07/10 08:02:00;;;;;;;0.73;0.70;;;;;;;19.59;45.31;101418.41;10484169;28;20037;-76
2023/07/10 08:07:02;;;;;;;1.10;0.75;;;;;;;19.38;44.66;101415.34;10467931;28;20052;-77
2023/07/10 08:12:05;;;;;;;0.88;0.50;;;;;;;18.77;46.12;101419.81;10484609;28;20056;-79
2023/07/10 08:17:07;;;;;;;1.38;0.50;;;;;;;18.77;46.64;101419.81;10483192;28;20049;-77
2023/07/10 08:22:09;;;;;;;0.70;0.70;;;;;;;19.65;44.91;101410.75;10485352;28;20060;-75
2023/07/10 08:27:11;;;;;;;2.28;0.70;;;;;;;18.95;45.75;101409.59;10478535;28;20534;-76
2023/07/10 08:32:13;;;;;;;1.58;0.60;;;;;;;17.94;48.01;101426.75;10492007;28;20047;-75
2023/07/10 08:37:16;;;;;;;2.15;0.60;;;;;;;17.76;48.68;101423.81;10464843;28;20523;-75
2023/07/10 08:42:20;;;;;;;3.25;0.90;;;;;;;17.26;50.31;101410.94;10456120;28;20533;-75
2023/07/10 08:47:25;;;;;;;0.73;0.70;;;;;;;16.85;51.75;101414.50;10457345;28;20052;-76
2023/07/10 08:52:51;;;;;;;0.90;0.80;;;;;;;16.51;52.11;101414.75;10468767;28;20052;-76
2023/07/10 08:57:58;;;;;;;1.17;0.80;;;;;;;16.50;51.88;101402.03;10464576;28;20415;-75
2023/07/10 09:03:03;;;;;;;;;;;;;;;17.23;50.18;101386.59;10488360;28;20033;-75
2023/07/10 09:08:10;;;;;;;0.82;0.82;;;;;;;17.28;49.71;101400.38;10487981;28;19927;-78
2023/07/10 09:13:16;;;;;;;3.75;0.70;;;;;;;17.11;49.47;101389.88;10451360;28;20053;-78
2023/07/10 09:18:46;;;;;;;5.40;0.80;;;;;;;16.91;50.00;101385.53;10489272;28;20033;-78
2023/07/10 09:23:48;;;;;;;2.80;0.80;;;;;;;16.93;50.62;101394.38;10486258;28;20537;-76
2023/07/10 09:29:03;;;;;;;0.80;0.77;;;;;;;17.62;48.90;101391.63;10477723;28;20053;-76
2023/07/10 09:34:09;;;;;;;1.23;0.65;;;;;;;17.15;49.17;101391.72;10484738;28;20423;-77
2023/07/10 09:39:14;;;;;;;0.65;0.55;;;;;;;16.66;50.58;101402.56;10487225;28;20053;-76
2023/07/10 09:44:19;;;;;;;1.52;0.60;;;;;;;16.69;50.04;101407.56;10457375;28;20490;-78
2023/07/10 09:49:22;;;;;;;0.70;0.70;;;;;;;16.26;51.01;101419.56;10466325;28;20768;-79
2023/07/10 09:54:25;;;;;;;1.90;0.57;;;;;;;16.04;50.58;101418.53;10454976;28;20052;-78
2023/07/10 09:59:31;;;;;;;0.50;0.40;;;;;;;15.97;51.40;101416.97;10467687;28;20613;-77
2023/07/10 10:04:34;;;;;;;0.77;0.52;;;;;;;15.94;51.56;101406.47;10486439;28;20053;-78
2023/07/10 10:09:36;;;;;;;1.48;0.60;;;;;;;15.94;51.84;101400.94;10475236;28;20044;-77
2023/07/10 10:14:53;;;;;;;0.98;0.70;;;;;;;16.10;51.71;101409.00;10462292;28;20045;-77
2023/07/10 10:20:08;;;;;;;0.68;0.50;;;;;;;15.83;52.15;101404.97;10484724;28;20037;-76
2023/07/10 10:25:15;;;;;;;2.17;0.65;;;;;;;15.38;52.54;101415.47;10475403;28;20048;-78
2023/07/10 10:30:38;;;;;;;0.63;0.50;;;;;;;15.51;53.44;101419.47;10459582;28;20041;-76
2023/07/10 10:35:53;;;;;;;0.98;0.70;;;;;;;15.40;53.84;101423.47;10486746;28;20052;-75
2023/07/10 10:41:29;;;;;;;0.90;0.50;;;;;;;15.14;53.59;101411.88;10476482;28;20041;-77
2023/07/10 10:46:41;;;;;;;1.03;0.90;;;;;;;15.17;54.91;101418.75;10451290;28;20047;-78
2023/07/10 10:52:07;;;;;;;1.15;0.57;;;;;;;15.37;54.09;101413.00;10444957;28;20508;-77
2023/07/10 10:57:12;;;;;;;0.52;0.52;;;;;;;15.47;52.59;101423.94;10451262;28;20500;-75
2023/07/10 11:02:40;;;;;;;3.00;0.60;;;;;;;15.28;52.74;101421.13;10480921;28;20052;-76
2023/07/10 11:07:45;;;;;;;0.40;0.40;;;;;;;15.21;53.09;101426.16;10445112;28;20045;-76
2023/07/10 11:12:47;;;;;;;0.60;0.60;;;;;;;15.43;53.09;101442.22;10471333;28;20044;-76
2023/07/10 11:17:51;;;;;;;0.50;0.50;;;;;;;15.22;53.65;101433.34;10451702;28;20044;-76
2023/07/10 11:22:59;;;;;;;1.20;0.70;;;;;;;15.15;52.87;101426.53;10480508;28;20534;-76
2023/07/10 11:28:18;;;;;;;0.60;0.60;;;;;;;15.10;52.48;101438.47;10478782;28;20033;-75
2023/07/10 11:33:21;;;;;;;0.68;0.60;;;;;;;15.07;52.50;101430.72;10478332;28;20056;-76
2023/07/10 11:38:23;;;;;;;1.00;0.90;;;;;;;15.29;52.45;101427.47;10457515;28;20045;-75
2023/07/10 11:43:25;;;;;;;0.63;0.63;;;;;;;15.27;52.22;101435.22;10474874;28;20048;-75
2023/07/10 11:48:34;;;;;;;0.93;0.68;;;;;;;15.09;52.72;101429.31;10473485;28;20111;-75
2023/07/10 11:53:36;;;;;;;0.60;0.60;;;;;;;15.14;52.78;101438.69;10482773;28;20049;-75
2023/07/10 11:58:40;;;;;;;0.70;0.70;;;;;;;15.01;52.98;101431.91;10480903;28;20076;-74
2023/07/10 12:03:42;;;;;;;0.60;0.60;;;;;;;14.92;52.78;101433.63;10479704;28;20045;-74
2023/07/10 12:08:49;;;;;;;0.70;0.70;;;;;;;14.90;53.05;101447.75;10482694;28;20056;-73
2023/07/10 12:13:52;;;;;;;3.70;1.02;;;;;;;14.85;53.57;101422.94;10481801;28;20499;-76
2023/07/10 12:19:02;;;;;;;0.90;0.63;;;;;;;14.92;53.15;101440.00;10464826;28;20033;-75
2023/07/10 12:24:04;;;;;;;0.93;0.60;;;;;;;15.00;53.30;101411.75;10482496;28;20053;-74
2023/07/10 12:29:12;;;;;;;0.60;0.60;;;;;;;15.19;51.89;101427.56;10483964;28;20037;-74
2023/07/10 12:34:23;;;;;;;0.80;0.60;;;;;;;15.23;51.15;101423.94;10471667;28;20061;-75
2023/07/10 12:39:26;;;;;;;0.80;0.80;;;;;;;15.19;51.56;101420.09;10460837;28;20060;-75
2023/07/10 12:44:29;;;;;;;4.53;1.27;;;;;;;15.24;50.81;101422.81;10468699;28;20037;-74
2023/07/10 12:49:32;;;;;;;1.17;0.70;;;;;;;15.06;50.75;101420.78;10465385;28;20095;-72
2023/07/10 12:54:40;;;;;;;1.42;0.60;;;;;;;15.19;50.84;101419.28;10476400;28;20060;-75
2023/07/10 12:59:42;;;;;;;1.45;0.60;;;;;;;15.24;51.20;101433.88;10454257;28;20052;-76
2023/07/10 13:04:56;;;;;;;1.23;0.80;;;;;;;15.30;50.12;101424.41;10473654;28;20049;-75
2023/07/10 13:10:18;;;;;;;3.60;0.90;;;;;;;15.31;50.61;101412.25;10481342;28;20049;-75
2023/07/10 13:15:35;;;;;;;0.82;0.70;;;;;;;15.32;50.61;101408.34;10461573;28;20037;-75
2023/07/10 13:20:39;;;;;;;2.45;0.75;;;;;;;15.28;50.46;101406.47;10488355;28;20044;-76
2023/07/10 13:25:41;;;;;;;0.47;0.30;;;;;;;15.39;49.93;101414.34;10484284;28;20056;-75
2023/07/10 13:30:43;;;;;;;0.50;0.50;;;;;;;15.26;50.19;101401.22;10475771;28;20037;-75
2023/07/10 13:35:48;;;;;;;4.07;0.70;;;;;;;15.21;50.29;101398.50;10486899;28;20037;-75
2023/07/10 13:40:50;;;;;;;1.40;0.50;;;;;;;15.18;50.10;101388.03;10484228;28;20029;-74
2023/07/10 13:45:59;;;;;;;0.60;0.50;;;;;;;15.12;50.17;101388.41;10489855;28;20415;-75
2023/07/10 13:51:01;;;;;;;0.63;0.60;;;;;;;15.08;49.75;101390.91;10485295;28;20041;-75
2023/07/10 13:56:28;;;;;;;0.45;0.45;;;;;;;15.13;49.66;101385.34;10476712;28;20066;-75
2023/07/10 14:01:32;;;;;;;0.80;0.68;;;;;;;15.18;50.17;101373.41;10463863;28;20029;-75
2023/07/10 14:06:37;;;;;;;0.93;0.52;;;;;;;15.25;50.15;101376.63;10482752;28;20045;-75
2023/07/10 14:11:41;;;;;;;0.63;0.63;;;;;;;15.33;50.62;101368.53;10473917;28;20041;-75
2023/07/10 14:16:44;;;;;;;0.63;0.45;;;;;;;15.46;50.77;101363.41;10487329;28;20522;-75
2023/07/10 14:21:46;;;;;;;1.05;0.55;;;;;;;15.41;50.91;101363.44;10483982;28;20419;-75
2023/07/10 14:26:49;;;;;;;0.55;0.50;;;;;;;15.41;50.26;101369.78;10453955;28;20048;-75
2023/07/10 14:31:52;;;;;;;0.95;0.60;;;;;;;15.29;50.77;101366.66;10476776;28;20048;-75
2023/07/10 14:36:54;;;;;;;1.30;0.50;;;;;;;15.26;52.00;101361.69;10484680;28;20383;-75
2023/07/10 14:41:56;;;;;;;0.60;0.60;;;;;;;15.27;52.80;101364.19;10473825;28;20049;-74
2023/07/10 14:46:59;;;;;;;0.75;0.60;;;;;;;15.16;52.13;101370.94;10466723;28;20036;-75
2023/07/10 14:52:01;;;;;;;0.45;0.45;;;;;;;14.95;53.07;101367.56;10464324;28;20068;-75
2023/07/10 14:57:04;;;;;;;0.82;0.70;;;;;;;14.82;53.35;101368.25;10469888;28;20037;-76
2023/07/10 15:02:17;;;;;;;0.52;0.52;;;;;;;14.80;53.80;101369.66;10468680;28;20057;-76
2023/07/10 15:07:21;;;;;;;1.10;0.60;;;;;;;14.84;53.34;101374.31;10468236;28;20044;-75
2023/07/10 15:12:23;;;;;;;0.82;0.50;;;;;;;14.68;53.27;101378.34;10480526;28;20533;-75
2023/07/10 15:17:27;;;;;;;0.70;0.40;;;;;;;14.61;53.71;101383.38;10483366;28;20041;-75
2023/07/10 15:22:29;;;;;;;1.45;0.75;;;;;;;14.68;54.48;101373.63;10484942;28;20071;-75
2023/07/10 15:27:33;;;;;;;0.70;0.60;;;;;;;14.73;53.93;101370.00;10454112;28;20049;-75
2023/07/10 15:32:39;;;;;;;1.23;0.17;;;;;;;14.63;53.82;101381.16;10482479;28;20052;-75
2023/07/10 15:37:42;;;;;;;0.22;0.20;;;;;;;14.52;53.78;101371.31;10483199;28;20049;-75
2023/07/10 15:42:46;;;;;;;1.02;0.50;;;;;;;14.33;54.30;101383.03;10464372;28;20037;-75
2023/07/10 15:47:52;;;;;;;2.42;0.93;;;;;;;14.28;54.97;101379.50;10451075;28;20044;-75
2023/07/10 15:52:55;;;;;;;0.47;0.47;;;;;;;14.31;55.08;101373.38;10482867;28;20415;-77
2023/07/10 15:57:57;;;;;;;0.90;0.80;;;;;;;14.46;54.92;101370.53;10469299;28;20059;-77
2023/07/10 16:03:00;;;;;;;1.65;0.93;;;;;;;14.56;55.00;101364.91;10463486;28;20029;-75
2023/07/10 16:08:07;;;;;;;0.60;0.60;;;;;;;14.56;54.11;101364.91;10457105;28;20028;-75
2023/07/10 16:13:15;;;;;;;3.20;0.73;;;;;;;14.45;53.89;101380.75;10443864;28;20040;-74
2023/07/10 16:18:30;;;;;;;1.60;1.50;;;;;;;14.31;53.91;101387.19;10478352;28;20049;-75
2023/07/10 16:23:34;;;;;;;1.20;0.52;;;;;;;14.23;54.74;101372.06;10463765;28;20499;-76
2023/07/10 16:28:36;;;;;;;1.15;0.60;;;;;;;14.23;54.54;101362.94;10479869;28;20534;-77
2023/07/10 16:33:38;;;;;;;0.65;0.30;;;;;;;14.21;54.48;101370.69;10475935;28;20506;-75
2023/07/10 16:38:40;;;;;;;0.82;0.70;;;;;;;14.14;54.78;101360.00;10481492;28;20048;-75
2023/07/10 16:43:43;;;;;;;0.45;0.45;;;;;;;14.05;54.82;101362.53;10458366;28;20044;-75
2023/07/10 16:48:50;;;;;;;1.05;0.57;;;;;;;14.09;54.80;101365.56;10470468;28;20568;-86
2023/07/10 16:53:56;;;;;;;0.50;0.50;;;;;;;14.16;54.37;101358.59;10470594;28;20059;-89
2023/07/10 16:58:59;;;;;;;3.07;1.63;;;;;;;14.13;54.80;101367.44;10437743;28;20052;-76
2023/07/10 17:04:02;;;;;;;0.73;0.43;;;;;;;14.22;54.46;101378.69;10491458;28;20049;-76
2023/07/10 17:09:04;;;;;;;0.50;0.50;;;;;;;14.09;54.05;101382.13;10484217;28;20041;-73
2023/07/10 17:14:13;;;;;;;1.05;0.90;;;;;;;14.16;54.31;101377.91;10481821;28;20487;-74
2023/07/10 17:19:16;;;;;;;0.85;0.50;;;;;;;14.24;54.50;101376.47;10467831;28;20037;-72
2023/07/10 17:24:20;;;;;;;0.40;0.30;;;;;;;14.05;54.59;101379.06;10462867;28;20040;-73
2023/07/10 17:29:22;;;;;;;0.38;0.38;;;;;;;14.00;55.68;101381.88;10480815;28;20044;-73
2023/07/10 17:34:24;;;;;;;1.85;0.60;;;;;;;13.95;55.78;101381.09;10480854;28;20040;-72
2023/07/10 17:39:28;;;;;;;0.60;0.60;;;;;;;14.04;55.52;101371.91;10480621;28;20049;-71
2023/07/10 17:44:33;;;;;;;0.60;0.60;;;;;;;13.97;56.07;101374.19;10480460;28;20048;-73
2023/07/10 17:49:35;;;;;;;0.45;0.40;;;;;;;13.98;55.58;101375.00;10487262;28;20041;-72
2023/07/10 17:54:37;;;;;;;1.17;0.70;;;;;;;13.80;56.56;101369.03;10467851;28;20044;-75
2023/07/10 17:59:40;;;;;;;0.45;0.45;;;;;;;13.86;56.76;101373.41;10481930;28;20424;-73
2023/07/10 18:04:43;;;;;;;0.77;0.60;;;;;;;13.77;57.15;101371.56;10453852;28;20063;-72
2023/07/10 18:09:45;;;;;;;0.63;0.52;;;;;;;13.74;57.23;101372.94;10449603;28;20048;-73
2023/07/10 18:14:47;;;;;;;0.75;0.50;;;;;;;13.74;57.87;101375.72;10470767;28;20045;-72
2023/07/10 18:19:49;;;;;;;0.55;0.52;;;;;;;13.71;58.20;101373.53;10469579;28;20447;-73
2023/07/10 18:24:52;;;;;;;0.93;0.60;;;;;;;13.54;58.13;101373.88;10477884;28;20051;-73
2023/07/10 18:29:54;;;;;;;0.55;0.47;;;;;;;13.42;59.44;101373.38;10468332;28;20044;-72
2023/07/10 18:34:56;;;;;;;0.65;0.50;;;;;;;13.24;60.24;101380.34;10451660;28;20045;-73
2023/07/10 18:39:58;;;;;;;1.02;0.60;;;;;;;13.17;60.21;101359.66;10479105;28;20037;-73
2023/07/10 18:45:00;;;;;;;0.40;0.40;;;;;;;13.09;60.70;101366.56;10461617;28;20049;-72
2023/07/10 18:50:05;;;;;;;4.40;0.85;;;;;;;13.10;61.18;101361.88;10460764;28;20126;-73
2023/07/10 18:55:18;;;;;;;1.15;0.40;;;;;;;13.10;61.73;101357.19;10454603;28;20037;-74
2023/07/10 19:00:22;;;;;;;2.35;0.60;;;;;;;13.01;61.60;101360.78;10453863;28;20060;-74
2023/07/10 19:05:24;;;;;;;1.50;0.60;;;;;;;12.91;62.07;101356.97;10451138;28;20041;-73
2023/07/10 19:10:26;;;;;;;1.40;0.70;;;;;;;13.14;62.09;101357.47;10479742;28;20047;-73
2023/07/10 19:15:28;;;;;;;1.08;0.77;;;;;;;13.35;61.37;101361.81;10466301;28;20045;-75
2023/07/10 19:20:31;;;;;;;1.25;0.70;;;;;;;13.14;61.64;101358.28;10475008;28;20402;-75
2023/07/10 19:25:33;;;;;;;1.70;0.90;;;;;;;13.14;62.26;101351.94;10450418;28;20427;-73
2023/07/10 19:30:36;;;;;;;1.73;0.82;;;;;;;13.30;61.23;101342.53;10469477;28;20029;-74
2023/07/10 19:35:38;;;;;;;1.10;0.50;;;;;;;13.46;61.32;101346.88;10467265;28;20037;-74
2023/07/10 19:40:41;;;;;;;1.35;0.82;;;;;;;13.36;61.78;101352.44;10476065;28;20494;-75
2023/07/10 19:45:44;;;;;;;1.13;0.57;;;;;;;13.23;61.37;101353.06;10472890;28;20060;-75
2023/07/10 19:50:47;;;;;;;2.75;0.77;;;;;;;13.16;61.19;101358.00;10426922;28;20048;-76
2023/07/10 19:55:52;;;;;;;2.50;1.02;;;;;;;13.38;61.64;101361.28;10463456;28;20053;-76
2023/07/10 20:00:54;;;;;;;2.38;0.75;;;;;;;13.44;61.20;101357.38;10469692;28;20033;-78
2023/07/10 20:05:57;;;;;;;1.98;0.90;;;;;;;13.24;62.28;101362.97;10443400;28;20056;-76
2023/07/10 20:11:06;;;;;;;1.88;0.80;;;;;;;13.21;62.35;101363.53;10450943;28;20048;-75
2023/07/10 20:16:14;;;;;;;2.42;0.90;;;;;;;13.24;61.74;101366.56;10478929;28;20049;-76
2023/07/10 20:21:18;;;;;;;2.08;0.73;;;;;;;13.27;61.64;101376.19;10467954;28;20037;-74
2023/07/10 20:26:21;;;;;;;1.02;1.00;;;;;;;13.42;61.30;101373.38;10481386;28;20411;-75
2023/07/10 20:31:24;;;;;;;3.60;1.10;;;;;;;13.46;60.99;101363.44;10411523;28;20068;-77
2023/07/10 20:36:26;;;;;;;2.47;1.00;;;;;;;13.46;60.53;101363.44;10482400;28;20057;-77
2023/07/10 20:41:29;;;;;;;1.30;1.05;;;;;;;13.15;61.81;101375.63;10477371;28;20049;-81
2023/07/10 20:46:34;;;;;;;1.50;1.02;;;;;;;13.35;61.10;101367.31;10457517;28;20038;-82
2023/07/10 20:51:37;;;;;;;1.33;0.90;;;;;;;13.22;61.12;101368.78;10476865;28;20037;-82
2023/07/10 20:56:40;;;;;;;1.42;1.13;;;;;;;13.20;61.95;101376.50;10476750;28;20411;-80
2023/07/10 21:01:42;;;;;;;1.52;0.90;;;;;;;13.17;61.93;101379.75;10460776;28;20044;-77
2023/07/10 21:06:45;;;;;;;2.17;1.00;;;;;;;13.30;60.91;101372.03;10478217;28;20029;-81
2023/07/10 21:11:47;;;;;;;1.15;0.80;;;;;;;13.50;60.57;101370.00;10466007;28;20064;-79
2023/07/10 21:16:50;;;;;;;2.22;1.30;;;;;;;13.61;60.68;101369.97;10460183;28;20036;-79
2023/07/10 21:21:52;;;;;;;1.10;1.00;;;;;;;13.75;60.02;101371.84;10476792;28;20041;-77
2023/07/10 21:26:57;;;;;;;1.88;1.20;;;;;;;13.45;61.23;101364.53;10448132;28;20056;-80
2023/07/10 21:32:00;;;;;;;3.35;1.73;;;;;;;13.41;61.11;101354.38;10437830;28;20033;-79
2023/07/10 21:37:02;;;;;;;2.22;1.30;;;;;;;13.26;61.67;101358.81;10481261;28;20049;-79
2023/07/10 21:42:05;;;;;;;1.38;0.70;;;;;;;13.02;61.93;101352.28;10484447;28;20487;-80
2023/07/10 21:47:10;;;;;;;1.10;1.00;;;;;;;12.78;62.94;101356.72;10461387;28;20037;-79
2023/07/10 21:52:12;;;;;;;0.98;0.82;;;;;;;12.96;62.79;101353.38;10482842;28;20044;-80
2023/07/10 21:57:21;;;;;;;0.90;0.90;;;;;;;12.99;62.41;101353.63;10472036;28;20052;-80
2023/07/10 22:02:23;;;;;;;1.35;1.15;;;;;;;12.91;62.68;101356.97;10463431;28;20033;-80
2023/07/10 22:07:26;;;;;;;1.05;0.90;;;;;;;12.94;62.86;101336.31;10451331;28;20037;-75
2023/07/10 22:12:28;;;;;;;0.75;0.70;;;;;;;12.76;63.82;101339.66;10471633;28;20095;-79
2023/07/10 22:17:30;;;;;;;1.50;1.00;;;;;;;12.71;63.69;101340.50;10435832;28;20051;-80
2023/07/10 22:22:32;;;;;;;0.90;0.80;;;;;;;12.56;64.44;101344.09;10468038;28;20037;-79
2023/07/10 22:27:34;;;;;;;1.23;0.82;;;;;;;12.67;63.91;101331.16;10488561;28;20060;-78
2023/07/10 22:32:37;;;;;;;1.00;0.90;;;;;;;12.68;64.00;101338.31;10477077;28;20049;-80
2023/07/10 22:37:39;;;;;;;0.95;0.70;;;;;;;12.62;64.16;101339.41;10439416;28;20037;-80
2023/07/10 22:42:41;;;;;;;1.10;0.70;;;;;;;12.55;64.95;101333.38;10485772;28;20044;-79
2023/07/10 22:47:43;;;;;;;1.20;0.82;;;;;;;12.60;65.06;101338.84;10478251;28;20032;-81
2023/07/10 22:52:48;;;;;;;1.52;0.93;;;;;;;12.59;64.96;101331.69;10488192;28;20036;-79
2023/07/10 22:57:50;;;;;;;0.75;0.63;;;;;;;12.48;65.91;101321.78;10487589;28;20064;-79
2023/07/10 23:02:53;;;;;;;0.80;0.70;;;;;;;12.43;65.81;101322.63;10487650;28;20037;-79
2023/07/10 23:07:56;;;;;;;1.10;0.70;;;;;;;12.50;66.32;101314.94;10460467;28;20048;-75
2023/07/10 23:12:58;;;;;;;0.77;0.70;;;;;;;12.52;65.94;101328.41;10468367;28;20037;-74
2023/07/10 23:18:00;;;;;;;0.80;0.80;;;;;;;12.45;66.75;101322.34;10463378;28;20045;-75